Time;durP1;ratioP1;P1;durP2;ratioP2;P2;SDS_P1;SDS_P2;PMS_P1;PMS_P2;Temp;Humidity;BMP_temperature;BMP_pressure;BME280_temperature;BME280_humidity;BME280_pressure;Samples;Min_cycle;Max_cycle;Signal;HPM_P1;HPM_P2
2021/06/01 00:00:08;;;;;;;6.85;4.68;;;13.00;99.90;;;;;;5096017;28;20054;-81
2021/06/01 00:02:34;;;;;;;15.93;8.00;;;13.10;99.90;;;;;;5096100;28;20362;-81
2021/06/01 00:05:00;;;;;;;6.25;4.07;;;13.00;99.90;;;;;;5095482;28;20037;-80
2021/06/01 00:07:26;;;;;;;7.60;5.10;;;13.00;99.90;;;;;;5095066;28;20111;-82
2021/06/01 00:09:52;;;;;;;10.43;5.85;;;13.10;99.90;;;;;;5097419;28;20093;-81
2021/06/01 00:12:18;;;;;;;13.32;7.40;;;13.00;99.90;;;;;;5097437;28;20488;-79
2021/06/01 00:14:44;;;;;;;11.98;7.28;;;12.90;99.90;;;;;;5096000;28;20547;-83
2021/06/01 00:17:10;;;;;;;11.77;6.07;;;12.90;99.90;;;;;;5094946;28;20027;-81
2021/06/01 00:19:36;;;;;;;12.88;6.43;;;12.80;99.90;;;;;;5094807;28;20544;-81
2021/06/01 00:22:03;;;;;;;12.02;7.50;;;12.90;99.90;;;;;;5097064;28;20021;-82
2021/06/01 00:24:29;;;;;;;6.60;4.80;;;12.80;99.90;;;;;;5098534;28;20401;-82
2021/06/01 00:26:55;;;;;;;6.68;4.35;;;13.10;99.90;;;;;;5098629;28;20106;-81
2021/06/01 00:29:21;;;;;;;9.82;6.28;;;13.00;99.90;;;;;;5100176;28;20040;-81
2021/06/01 00:31:46;;;;;;;9.07;5.95;;;12.80;99.90;;;;;;5098905;28;20450;-80
2021/06/01 00:34:13;;;;;;;6.88;4.90;;;13.00;99.90;;;;;;5098169;28;20055;-81
2021/06/01 00:36:39;;;;;;;6.25;4.63;;;12.90;99.90;;;;;;5097461;28;20377;-82
2021/06/01 00:39:06;;;;;;;15.32;8.23;;;13.00;99.90;;;;;;5100110;28;20093;-82
2021/06/01 00:41:32;;;;;;;7.95;5.60;;;12.90;99.90;;;;;;5099005;28;20409;-81
2021/06/01 00:44:00;;;;;;;6.25;4.95;;;13.00;99.90;;;;;;5097548;28;20020;-79
2021/06/01 00:46:26;;;;;;;6.68;4.90;;;13.10;99.90;;;;;;5099449;28;20016;-82
2021/06/01 00:48:52;;;;;;;7.88;4.75;;;13.10;99.90;;;;;;5098187;28;20032;-79
2021/06/01 00:51:18;;;;;;;10.20;5.60;;;13.10;99.90;;;;;;5099432;28;20474;-80
2021/06/01 00:53:44;;;;;;;13.05;7.55;;;13.20;99.90;;;;;;5098227;28;20028;-82
2021/06/01 00:56:11;;;;;;;6.60;4.90;;;13.20;99.90;;;;;;5098091;28;20027;-81
2021/06/01 00:58:37;;;;;;;9.00;5.20;;;13.20;99.90;;;;;;5100576;28;20031;-82
2021/06/01 01:03:35;;;;;;;11.98;7.00;;;13.00;99.90;;;;;;5097939;28;20028;-82
2021/06/01 01:06:32;;;;;;;11.65;5.82;;;12.90;99.90;;;;;;5096004;28;20020;-81
2021/06/01 01:09:08;;;;;;;10.77;6.50;;;12.90;99.90;;;;;;5097469;28;20032;-81
2021/06/01 01:11:40;;;;;;;7.45;5.25;;;12.90;99.90;;;;;;5097786;28;20029;-81
2021/06/01 01:14:30;;;;;;;8.38;4.80;;;13.00;99.90;;;;;;5096607;28;20067;-82
2021/06/01 01:17:03;;;;;;;7.53;5.80;;;13.10;99.90;;;;;;5098051;28;20027;-82
2021/06/01 01:19:57;;;;;;;5.78;4.80;;;12.90;99.90;;;;;;5097809;28;20024;-81
2021/06/01 01:22:25;;;;;;;7.95;5.55;;;12.90;99.90;;;;;;5097752;28;20062;-82
2021/06/01 01:24:57;;;;;;;6.90;5.28;;;12.70;99.90;;;;;;5097687;28;20143;-83
2021/06/01 01:27:59;;;;;;;5.40;4.45;;;12.80;99.90;;;;;;5098323;28;20031;-82
2021/06/01 01:30:29;;;;;;;8.65;4.68;;;12.90;99.90;;;;;;5079731;28;20036;-79
2021/06/01 01:32:58;;;;;;;7.50;5.45;;;13.00;99.90;;;;;;5098006;28;20024;-82
2021/06/01 01:35:32;;;;;;;6.10;4.32;;;12.80;99.90;;;;;;5095937;28;20036;-82
2021/06/01 01:38:00;;;;;;;7.53;4.93;;;12.80;99.90;;;;;;5098787;28;20119;-81
2021/06/01 01:40:31;;;;;;;5.90;4.80;;;12.80;99.90;;;;;;5098018;28;20061;-81
2021/06/01 01:43:04;;;;;;;7.30;4.70;;;12.70;99.90;;;;;;5096413;28;20034;-80
2021/06/01 01:45:36;;;;;;;6.70;4.60;;;12.80;99.90;;;;;;5095049;28;20505;-84
2021/06/01 01:51:11;;;;;;;6.60;4.70;;;12.80;99.90;;;;;;5098301;28;20424;-82
2021/06/01 01:53:43;;;;;;;6.32;4.45;;;12.70;99.90;;;;;;5095393;28;20039;-80
2021/06/01 01:56:09;;;;;;;5.90;5.18;;;12.80;99.90;;;;;;5095431;28;20089;-83
2021/06/01 01:58:36;;;;;;;7.82;5.05;;;12.80;99.90;;;;;;5096303;28;20048;-83
2021/06/01 02:01:02;;;;;;;6.90;5.07;;;12.80;99.90;;;;;;5096564;28;20016;-81
2021/06/01 02:03:29;;;;;;;7.13;5.78;;;12.70;99.90;;;;;;5096376;28;20036;-84
2021/06/01 02:05:56;;;;;;;6.03;4.53;;;12.70;99.90;;;;;;5095168;28;20027;-82
2021/06/01 02:08:22;;;;;;;6.50;4.90;;;12.70;99.90;;;;;;5095101;28;20035;-82
2021/06/01 02:10:48;;;;;;;6.93;5.18;;;12.70;99.90;;;;;;5095689;28;20023;-79
2021/06/01 02:13:14;;;;;;;6.00;4.20;;;12.60;99.90;;;;;;5096373;28;20020;-82
2021/06/01 02:15:40;;;;;;;8.20;4.78;;;12.80;99.90;;;;;;5096742;28;20059;-80
2021/06/01 02:18:06;;;;;;;8.85;5.20;;;12.70;99.90;;;;;;5095309;28;20024;-81
2021/06/01 02:20:33;;;;;;;6.72;5.50;;;12.60;99.90;;;;;;5096924;28;20030;-82
2021/06/01 02:25:41;;;;;;;8.07;5.82;;;12.80;99.90;;;;;;5095597;28;20139;-81
2021/06/01 02:28:34;;;;;;;7.82;5.30;;;12.70;99.90;;;;;;5094119;28;20090;-82
2021/06/01 02:31:09;;;;;;;6.95;5.55;;;12.60;99.90;;;;;;5095269;28;20085;-83
2021/06/01 02:33:37;;;;;;;8.45;6.10;;;12.70;99.90;;;;;;5097076;28;20020;-79
2021/06/01 02:36:07;;;;;;;8.55;6.25;;;12.60;99.90;;;;;;5096916;28;20071;-79
2021/06/01 02:38:34;;;;;;;7.18;6.03;;;12.60;99.90;;;;;;5097859;28;20089;-84
2021/06/01 02:41:03;;;;;;;6.45;5.82;;;12.70;99.90;;;;;;5095993;28;20111;-80
2021/06/01 02:43:30;;;;;;;8.25;5.72;;;12.70;99.90;;;;;;5095639;28;20380;-80
2021/06/01 02:45:57;;;;;;;8.88;6.30;;;12.60;99.90;;;;;;5094841;28;20031;-79
2021/06/01 02:48:24;;;;;;;7.50;6.18;;;12.70;99.90;;;;;;5096654;28;20473;-82
2021/06/01 02:50:53;;;;;;;7.38;6.03;;;12.80;99.90;;;;;;5099568;28;20028;-82
2021/06/01 02:53:21;;;;;;;7.35;6.55;;;12.60;99.90;;;;;;5098840;28;20023;-82
2021/06/01 02:55:48;;;;;;;10.55;6.05;;;12.40;99.90;;;;;;5094990;28;20558;-79
2021/06/01 02:58:15;;;;;;;7.72;5.97;;;12.40;99.90;;;;;;5097579;28;20027;-81
2021/06/01 03:00:43;;;;;;;7.32;5.60;;;12.50;99.90;;;;;;5094099;28;20017;-81
2021/06/01 03:03:12;;;;;;;10.27;6.55;;;12.60;99.90;;;;;;5093816;28;20016;-82
2021/06/01 03:05:39;;;;;;;9.40;6.50;;;12.60;99.90;;;;;;5095005;28;20028;-79
2021/06/01 03:08:14;;;;;;;9.85;6.57;;;12.40;99.90;;;;;;5095859;28;20109;-82
2021/06/01 03:10:40;;;;;;;7.57;6.32;;;12.40;99.90;;;;;;5097378;28;20108;-82
2021/06/01 03:13:06;;;;;;;9.05;6.70;;;12.40;99.90;;;;;;5096720;28;20489;-82
2021/06/01 03:15:32;;;;;;;7.78;6.38;;;12.50;99.90;;;;;;5100338;28;20477;-78
2021/06/01 03:17:58;;;;;;;8.88;6.75;;;12.50;99.90;;;;;;5096061;28;20031;-82
2021/06/01 03:20:23;;;;;;;8.75;7.00;;;12.40;99.90;;;;;;5097729;28;20027;-81
2021/06/01 03:22:50;;;;;;;9.68;6.38;;;12.40;99.90;;;;;;5094330;28;20351;-81
2021/06/01 03:25:16;;;;;;;9.63;6.85;;;12.40;99.90;;;;;;5097184;28;20435;-81
2021/06/01 03:27:42;;;;;;;9.50;8.05;;;12.40;99.90;;;;;;5093713;28;20028;-82
2021/06/01 03:30:10;;;;;;;10.13;7.38;;;12.30;99.90;;;;;;5097793;28;20024;-81
2021/06/01 03:32:36;;;;;;;9.75;7.05;;;12.40;99.90;;;;;;5097274;28;20042;-82
2021/06/01 03:35:03;;;;;;;9.20;7.60;;;12.50;99.90;;;;;;5093190;28;20055;-81
2021/06/01 03:37:29;;;;;;;8.35;6.85;;;12.40;99.90;;;;;;5094804;28;20016;-81
2021/06/01 03:39:55;;;;;;;9.55;8.18;;;12.50;99.90;;;;;;5095458;28;20026;-83
2021/06/01 03:42:21;;;;;;;9.40;7.47;;;12.30;99.90;;;;;;5095320;28;20024;-81
2021/06/01 03:44:48;;;;;;;9.80;7.75;;;12.30;99.90;;;;;;5094579;28;20500;-80
2021/06/01 03:47:14;;;;;;;10.70;7.50;;;12.30;99.90;;;;;;5096478;28;20021;-84
2021/06/01 03:49:40;;;;;;;10.35;7.00;;;12.40;99.90;;;;;;5093835;28;20477;-84
2021/06/01 03:52:08;;;;;;;10.70;7.35;;;12.40;99.90;;;;;;5094675;28;20193;-84
2021/06/01 03:54:38;;;;;;;7.90;6.30;;;12.40;99.90;;;;;;5094167;28;20398;-83
2021/06/01 03:57:06;;;;;;;12.57;7.47;;;12.50;99.90;;;;;;5095269;28;20473;-85
2021/06/01 03:59:32;;;;;;;9.10;7.30;;;12.50;99.90;;;;;;5096458;28;20495;-83
2021/06/01 04:01:58;;;;;;;8.20;5.97;;;12.60;99.90;;;;;;5097605;28;20028;-84
2021/06/01 04:04:24;;;;;;;10.00;6.50;;;12.80;99.90;;;;;;5098052;28;20141;-85
2021/06/01 04:06:50;;;;;;;9.07;6.80;;;12.80;99.90;;;;;;5099515;28;20452;-83
2021/06/01 04:09:16;;;;;;;10.57;6.97;;;12.80;99.90;;;;;;5098991;28;20690;-82
2021/06/01 04:11:43;;;;;;;8.45;6.10;;;12.80;99.90;;;;;;5099053;28;20032;-81
2021/06/01 04:14:09;;;;;;;10.45;7.35;;;12.70;99.90;;;;;;5099216;28;21895;-81
2021/06/01 04:16:35;;;;;;;8.15;6.22;;;12.80;99.90;;;;;;5098411;28;20020;-80
2021/06/01 04:19:01;;;;;;;10.38;7.40;;;12.90;99.90;;;;;;5098770;28;20339;-80
2021/06/01 04:21:27;;;;;;;9.45;6.50;;;12.80;99.90;;;;;;5097944;28;20031;-80
2021/06/01 04:23:53;;;;;;;12.02;7.65;;;13.00;99.90;;;;;;5098284;28;20020;-81
2021/06/01 04:26:19;;;;;;;8.80;6.60;;;12.80;99.90;;;;;;5098289;28;20030;-83
2021/06/01 04:28:45;;;;;;;11.07;7.10;;;12.80;99.90;;;;;;5100387;28;20153;-84
2021/06/01 04:31:11;;;;;;;7.57;6.60;;;12.70;99.90;;;;;;5097593;28;20055;-83
2021/06/01 04:33:37;;;;;;;10.32;7.57;;;12.80;99.90;;;;;;5096769;28;20019;-81
2021/06/01 04:36:03;;;;;;;8.10;6.75;;;12.80;99.90;;;;;;5097967;28;20020;-84
2021/06/01 04:38:29;;;;;;;10.38;7.03;;;12.80;99.90;;;;;;5096977;28;20028;-83
2021/06/01 04:40:55;;;;;;;8.88;7.47;;;12.80;99.90;;;;;;5097721;28;20418;-79
2021/06/01 04:43:21;;;;;;;13.38;9.27;;;12.70;99.90;;;;;;5097648;28;20031;-80
2021/06/01 04:45:47;;;;;;;8.45;6.82;;;12.80;99.90;;;;;;5098255;28;20105;-80
2021/06/01 04:48:13;;;;;;;8.48;6.47;;;12.80;99.90;;;;;;5098707;28;20028;-80
2021/06/01 04:50:39;;;;;;;8.55;6.10;;;13.10;99.90;;;;;;5097266;28;20382;-83
2021/06/01 04:53:05;;;;;;;7.70;6.30;;;13.30;99.90;;;;;;5097639;28;20111;-83
2021/06/01 04:55:31;;;;;;;6.70;6.00;;;13.30;99.90;;;;;;5096957;28;20028;-83
2021/06/01 04:57:57;;;;;;;8.98;6.47;;;13.50;99.90;;;;;;5099629;28;20031;-80
2021/06/01 05:00:23;;;;;;;8.90;7.05;;;13.40;99.90;;;;;;5095748;28;20020;-83
2021/06/01 05:02:49;;;;;;;9.23;6.55;;;13.40;99.90;;;;;;5099112;28;20019;-81
2021/06/01 05:05:16;;;;;;;9.68;6.75;;;13.40;99.90;;;;;;5099315;28;20378;-84
2021/06/01 05:07:41;;;;;;;7.88;6.30;;;13.40;99.90;;;;;;5098675;28;20092;-87
2021/06/01 05:10:08;;;;;;;8.13;6.00;;;13.40;99.90;;;;;;5098899;28;20107;-79
2021/06/01 05:12:34;;;;;;;10.02;6.70;;;13.50;99.90;;;;;;5099686;28;20076;-84
2021/06/01 05:15:01;;;;;;;7.38;5.95;;;13.40;99.90;;;;;;5100123;28;20027;-83
2021/06/01 05:17:27;;;;;;;10.77;6.35;;;13.60;99.90;;;;;;5096589;28;20158;-85
2021/06/01 05:19:53;;;;;;;8.02;6.30;;;13.80;99.90;;;;;;5097889;28;20020;-80
2021/06/01 05:22:19;;;;;;;6.35;5.75;;;13.90;99.90;;;;;;5095685;28;20450;-84
2021/06/01 05:24:45;;;;;;;10.13;7.47;;;14.00;99.90;;;;;;5078719;28;20406;-85
2021/06/01 05:27:12;;;;;;;9.05;7.22;;;14.10;99.90;;;;;;5096563;28;20020;-84
2021/06/01 05:29:50;;;;;;;12.13;8.75;;;14.20;99.90;;;;;;5095852;28;20027;-82
2021/06/01 05:35:16;;;;;;;6.40;5.57;;;14.00;99.90;;;;;;5096672;28;20311;-85
2021/06/01 05:37:43;;;;;;;9.30;5.75;;;13.90;99.90;;;;;;5097062;28;20051;-85
2021/06/01 05:40:09;;;;;;;6.32;5.25;;;13.90;99.90;;;;;;5096630;28;20381;-83
2021/06/01 05:42:35;;;;;;;7.65;5.43;;;13.90;99.90;;;;;;5098383;28;20024;-83
2021/06/01 05:45:02;;;;;;;8.45;5.30;;;14.10;99.90;;;;;;5096032;28;20052;-86
2021/06/01 05:47:28;;;;;;;7.78;5.50;;;14.40;99.90;;;;;;5096998;28;20051;-84
2021/06/01 05:49:54;;;;;;;8.63;5.60;;;14.50;99.90;;;;;;5096137;28;20361;-80
2021/06/01 05:52:20;;;;;;;7.38;4.40;;;14.60;99.90;;;;;;5094983;28;20035;-84
2021/06/01 05:54:47;;;;;;;5.95;4.63;;;14.70;99.90;;;;;;5096936;28;20153;-81
2021/06/01 05:57:13;;;;;;;6.75;4.60;;;14.70;99.90;;;;;;5095848;28;20027;-80
2021/06/01 05:59:39;;;;;;;6.25;4.80;;;14.80;99.90;;;;;;5096896;28;20024;-80
2021/06/01 06:02:05;;;;;;;6.70;4.78;;;14.80;99.90;;;;;;5097505;28;20020;-86
2021/06/01 06:04:31;;;;;;;8.32;5.30;;;14.90;99.90;;;;;;5099123;28;20367;-82
2021/06/01 06:06:57;;;;;;;8.27;5.25;;;14.90;99.90;;;;;;5097539;28;20056;-79
2021/06/01 06:09:23;;;;;;;8.05;5.80;;;15.10;99.90;;;;;;5098668;28;20115;-81
2021/06/01 06:11:49;;;;;;;6.15;4.70;;;15.10;99.90;;;;;;5098548;28;20093;-83
2021/06/01 06:14:17;;;;;;;10.45;6.50;;;15.20;99.90;;;;;;5096823;28;20028;-84
2021/06/01 06:17:10;;;;;;;6.97;4.55;;;15.10;99.90;;;;;;5098876;28;20473;-85
2021/06/01 06:19:42;;;;;;;6.70;3.97;;;15.20;99.90;;;;;;5096802;28;20020;-84
2021/06/01 06:22:08;;;;;;;6.75;4.95;;;15.20;99.90;;;;;;5099565;28;20024;-81
2021/06/01 06:24:34;;;;;;;10.57;5.70;;;15.50;99.90;;;;;;5097051;28;20040;-87
2021/06/01 06:27:01;;;;;;;22.70;6.80;;;15.50;99.90;;;;;;5094479;28;20020;-83
2021/06/01 06:29:27;;;;;;;10.35;6.05;;;15.50;99.90;;;;;;5094908;28;20508;-83
2021/06/01 06:31:53;;;;;;;9.65;5.40;;;15.60;99.90;;;;;;5098216;28;20382;-83
2021/06/01 06:34:19;;;;;;;9.68;5.38;;;15.70;99.90;;;;;;5097038;28;20024;-84
2021/06/01 06:36:45;;;;;;;7.65;4.43;;;15.90;99.90;;;;;;5096781;28;20023;-83
2021/06/01 06:39:10;;;;;;;9.48;4.18;;;16.20;99.90;;;;;;5096017;28;20038;-77
2021/06/01 06:41:37;;;;;;;7.10;4.28;;;16.10;99.90;;;;;;5097340;28;20367;-83
2021/06/01 06:44:04;;;;;;;5.88;4.22;;;16.10;99.90;;;;;;5098067;28;20539;-77
2021/06/01 06:46:36;;;;;;;9.48;3.90;;;16.10;99.90;;;;;;5098335;28;20081;-85
2021/06/01 06:49:03;;;;;;;7.00;3.90;;;16.10;99.90;;;;;;5097395;28;20028;-79
2021/06/01 06:51:30;;;;;;;4.45;3.50;;;16.00;99.90;;;;;;5098942;28;20024;-80
2021/06/01 06:53:57;;;;;;;18.50;5.25;;;16.00;99.90;;;;;;5098482;28;20073;-78
2021/06/01 06:56:29;;;;;;;5.40;4.10;;;15.80;99.90;;;;;;5095953;28;20114;-80
2021/06/01 06:58:56;;;;;;;7.25;3.72;;;15.80;99.90;;;;;;5097337;28;20046;-79
2021/06/01 07:01:23;;;;;;;6.88;4.68;;;15.70;99.90;;;;;;5099197;28;20070;-81
2021/06/01 07:03:49;;;;;;;7.05;4.50;;;15.70;99.90;;;;;;5097033;28;20021;-81
2021/06/01 07:06:16;;;;;;;7.20;4.70;;;15.80;99.90;;;;;;5096318;28;20020;-79
2021/06/01 07:08:43;;;;;;;6.47;4.55;;;15.90;99.90;;;;;;5098281;28;20020;-78
2021/06/01 07:11:09;;;;;;;7.75;4.78;;;15.90;99.90;;;;;;5097579;28;20077;-79
2021/06/01 07:13:48;;;;;;;8.55;4.65;;;15.80;99.90;;;;;;5098531;28;20072;-80
2021/06/01 07:16:14;;;;;;;8.45;4.00;;;16.00;99.90;;;;;;5094478;28;20078;-80
2021/06/01 07:18:41;;;;;;;7.78;4.63;;;16.00;99.90;;;;;;5096434;28;20067;-79
2021/06/01 07:21:08;;;;;;;8.95;4.45;;;16.20;99.90;;;;;;5092726;28;20024;-78
2021/06/01 07:23:34;;;;;;;8.63;5.03;;;16.20;99.90;;;;;;5092680;28;20043;-77
2021/06/01 07:26:01;;;;;;;6.25;4.35;;;16.20;99.90;;;;;;5093819;28;20048;-76
2021/06/01 07:28:27;;;;;;;6.60;3.35;;;16.30;99.90;;;;;;5094869;28;20024;-77
2021/06/01 07:30:53;;;;;;;7.88;3.92;;;16.30;99.90;;;;;;5097958;28;20145;-78
2021/06/01 07:33:19;;;;;;;7.13;4.55;;;16.20;99.90;;;;;;5103231;28;20032;-77
2021/06/01 07:35:45;;;;;;;5.00;3.30;;;16.20;99.90;;;;;;5098008;28;20097;-76
2021/06/01 07:38:12;;;;;;;6.45;3.60;;;16.20;99.90;;;;;;5097362;28;20478;-78
2021/06/01 07:40:41;;;;;;;5.75;3.50;;;16.40;99.90;;;;;;5101527;28;20028;-77
2021/06/01 07:43:07;;;;;;;6.28;3.50;;;16.40;99.90;;;;;;5100297;28;20493;-76
2021/06/01 07:45:34;;;;;;;5.22;3.60;;;16.50;99.90;;;;;;5100890;28;20020;-77
2021/06/01 07:48:00;;;;;;;6.25;4.03;;;16.60;99.90;;;;;;5102628;28;20016;-77
2021/06/01 07:50:26;;;;;;;4.90;3.60;;;16.70;99.80;;;;;;5099583;28;20369;-78
2021/06/01 07:52:53;;;;;;;7.03;3.63;;;16.70;99.90;;;;;;5102665;28;20020;-79
2021/06/01 07:55:19;;;;;;;4.93;3.47;;;16.70;99.90;;;;;;5100026;28;20031;-81
2021/06/01 07:57:44;;;;;;;4.95;3.63;;;16.70;99.90;;;;;;5099510;28;20024;-79
2021/06/01 08:00:12;;;;;;;8.27;4.38;;;16.70;99.80;;;;;;5098081;28;20035;-80
2021/06/01 08:02:39;;;;;;;6.88;3.40;;;16.90;99.80;;;;;;5101078;28;20512;-78
2021/06/01 08:05:06;;;;;;;7.50;3.47;;;16.90;99.40;;;;;;5098929;28;20024;-78
2021/06/01 08:07:33;;;;;;;6.20;3.72;;;16.70;98.40;;;;;;5101114;28;20065;-79
2021/06/01 08:10:00;;;;;;;7.47;4.38;;;16.80;99.60;;;;;;5098049;28;20020;-81
2021/06/01 08:12:26;;;;;;;5.82;3.67;;;16.90;99.50;;;;;;5097986;28;20029;-79
2021/06/01 08:14:53;;;;;;;6.22;4.00;;;16.80;99.40;;;;;;5099743;28;20024;-78
2021/06/01 08:17:19;;;;;;;4.22;3.30;;;16.90;99.40;;;;;;5098998;28;20078;-80
2021/06/01 08:19:47;;;;;;;4.75;3.30;;;17.00;99.00;;;;;;5097845;28;20028;-79
2021/06/01 08:24:45;;;;;;;7.43;3.92;;;17.20;98.40;;;;;;5102512;28;20055;-81
2021/06/01 08:27:12;;;;;;;13.15;8.80;;;17.40;98.40;;;;;;5098551;28;20435;-80
2021/06/01 08:29:38;;;;;;;6.97;4.57;;;17.50;99.30;;;;;;5100361;28;20078;-78
2021/06/01 08:32:05;;;;;;;5.82;4.05;;;;;;;;;;5101996;28;20016;-81
2021/06/01 08:34:30;;;;;;;3.80;3.30;;;18.60;97.00;;;;;;5098372;28;20542;-79
2021/06/01 08:36:57;;;;;;;6.70;3.63;;;18.80;95.00;;;;;;5096844;28;20024;-79
2021/06/01 08:39:26;;;;;;;4.13;3.45;;;;;;;;;;5096408;28;20099;-76
2021/06/01 08:41:53;;;;;;;5.40;3.78;;;19.40;93.50;;;;;;5101371;28;20024;-77
2021/06/01 08:44:19;;;;;;;5.95;3.10;;;19.40;94.70;;;;;;5099347;28;20064;-79
2021/06/01 08:46:50;;;;;;;6.68;4.70;;;19.60;92.60;;;;;;5099832;28;20052;-78
2021/06/01 08:49:20;;;;;;;6.07;3.42;;;19.80;93.30;;;;;;5103370;28;20049;-82
2021/06/01 08:51:48;;;;;;;9.18;5.82;;;20.10;92.20;;;;;;5102546;28;20039;-75
2021/06/01 08:54:15;;;;;;;27.33;19.00;;;20.30;92.00;;;;;;5100800;28;20008;-79
2021/06/01 08:56:41;;;;;;;7.93;5.30;;;20.50;91.00;;;;;;5100592;28;20020;-80
2021/06/01 08:59:09;;;;;;;6.63;3.30;;;20.60;90.10;;;;;;5094910;28;20024;-80
2021/06/01 09:01:35;;;;;;;5.00;3.00;;;20.60;89.20;;;;;;5095719;28;20110;-80
2021/06/01 09:04:09;;;;;;;6.45;4.20;;;20.30;89.50;;;;;;5097884;28;20433;-79
2021/06/01 09:06:40;;;;;;;10.65;3.83;;;20.00;90.50;;;;;;5096387;28;20549;-81
2021/06/01 09:14:56;;;;;;;5.57;3.17;;;20.70;90.30;;;;;;5101235;28;20024;-79
2021/06/01 09:22:46;;;;;;;3.50;2.63;;;;;;;;;;5101879;28;20024;-77
2021/06/01 09:25:20;;;;;;;3.90;2.88;;;21.20;86.00;;;;;;5098295;28;20093;-78
2021/06/01 09:27:52;;;;;;;4.85;2.50;;;21.30;85.60;;;;;;5099941;28;20028;-77
2021/06/01 09:30:44;;;;;;;3.72;2.10;;;21.60;82.30;;;;;;5099570;28;20385;-85
2021/06/01 09:33:30;;;;;;;4.15;2.30;;;21.50;81.40;;;;;;5098708;28;20474;-84
2021/06/01 09:36:01;;;;;;;5.78;2.75;;;21.60;81.50;;;;;;5099298;28;20040;-81
2021/06/01 09:38:41;;;;;;;3.85;2.60;;;21.40;79.80;;;;;;5098277;28;20439;-81
2021/06/01 09:41:13;;;;;;;5.10;2.50;;;21.50;84.10;;;;;;5096648;28;20070;-79
2021/06/01 09:44:03;;;;;;;4.78;2.40;;;21.00;83.40;;;;;;5095449;28;20021;-80
2021/06/01 09:46:32;;;;;;;4.80;2.30;;;20.70;83.10;;;;;;5100770;28;20028;-80
2021/06/01 09:49:14;;;;;;;6.28;2.65;;;20.40;84.30;;;;;;5095361;28;20024;-81
2021/06/01 09:51:46;;;;;;;7.53;3.00;;;20.40;84.00;;;;;;5096310;28;20138;-81
2021/06/01 09:54:34;;;;;;;3.65;2.50;;;20.30;81.90;;;;;;5101237;28;20061;-80
2021/06/01 09:57:21;;;;;;;5.38;4.07;;;20.30;81.20;;;;;;5100791;28;20020;-82
2021/06/01 10:00:12;;;;;;;5.47;3.83;;;20.40;82.70;;;;;;5100563;28;20036;-81
2021/06/01 10:02:39;;;;;;;6.50;3.97;;;21.00;82.70;;;;;;5098491;28;20024;-83
2021/06/01 10:05:20;;;;;;;5.65;3.90;;;21.10;81.90;;;;;;5099020;28;20021;-83
2021/06/01 10:07:48;;;;;;;7.22;3.50;;;21.10;81.80;;;;;;5099730;28;20389;-84
2021/06/01 10:10:32;;;;;;;5.90;4.35;;;21.20;79.30;;;;;;5095874;28;20457;-85
2021/06/01 10:13:00;;;;;;;5.07;2.70;;;21.70;80.00;;;;;;5094329;28;20020;-85
2021/06/01 10:15:29;;;;;;;4.65;2.80;;;21.90;79.20;;;;;;5094705;28;20390;-87
2021/06/01 10:17:56;;;;;;;4.07;3.00;;;21.90;76.90;;;;;;5097607;28;20028;-85
2021/06/01 10:20:24;;;;;;;4.32;2.90;;;21.80;78.30;;;;;;5097988;28;20058;-84
2021/06/01 10:22:51;;;;;;;6.45;2.65;;;21.80;80.30;;;;;;5095200;28;20012;-80
2021/06/01 10:25:18;;;;;;;3.95;2.65;;;21.50;77.00;;;;;;5094215;28;20181;-80
2021/06/01 10:27:47;;;;;;;8.20;3.40;;;21.40;79.40;;;;;;5094170;28;20027;-81
2021/06/01 10:30:14;;;;;;;7.53;3.55;;;21.50;78.30;;;;;;5094286;28;20076;-79
2021/06/01 10:32:47;;;;;;;5.05;2.50;;;22.40;81.50;;;;;;5094248;28;20016;-79
2021/06/01 10:35:17;;;;;;;4.32;2.30;;;21.60;76.40;;;;;;5094160;28;20040;-78
2021/06/01 10:51:59;;;;;;;5.72;2.70;;;23.10;75.40;;;;;;5093900;28;20074;-80
2021/06/01 10:54:49;;;;;;;5.05;2.97;;;22.40;75.30;;;;;;5093990;28;20036;-79
2021/06/01 10:57:17;;;;;;;6.03;2.92;;;22.20;76.00;;;;;;5087769;28;20063;-80
2021/06/01 11:02:30;;;;;;;5.13;3.05;;;23.20;74.00;;;;;;5094501;28;20106;-84
2021/06/01 11:05:11;;;;;;;6.03;3.00;;;23.00;73.60;;;;;;5097551;28;20502;-81
2021/06/01 11:07:54;;;;;;;4.65;2.47;;;23.40;70.10;;;;;;5094983;28;20032;-83
2021/06/01 11:10:42;;;;;;;3.50;2.50;;;24.00;72.40;;;;;;5094972;28;20023;-80
2021/06/01 11:13:10;;;;;;;7.40;3.00;;;23.40;68.90;;;;;;5095195;28;20027;-83
2021/06/01 11:15:40;;;;;;;6.22;2.45;;;22.90;71.50;;;;;;5094361;28;20028;-84
2021/06/01 11:18:28;;;;;;;4.95;2.72;;;22.60;74.80;;;;;;5095595;28;20024;-83
2021/06/01 11:21:17;;;;;;;6.35;2.38;;;22.20;73.00;;;;;;5094813;28;20381;-82
2021/06/01 11:35:23;;;;;;;10.77;4.60;;;21.40;74.60;;;;;;5096115;28;20149;-81
2021/06/01 11:44:22;;;;;;;5.95;2.97;;;21.80;76.30;;;;;;5093950;28;20032;-85
2021/06/01 11:47:42;;;;;;;3.97;2.22;;;22.40;73.00;;;;;;5092538;28;20546;-81
2021/06/01 11:51:00;;;;;;;5.43;2.63;;;22.90;69.20;;;;;;5092315;28;20028;-80
2021/06/01 11:54:04;;;;;;;4.80;2.83;;;22.40;71.60;;;;;;5095016;28;20055;-81
2021/06/01 11:57:21;;;;;;;5.43;3.00;;;21.50;72.70;;;;;;5093377;28;20032;-80
2021/06/01 12:03:46;;;;;;;7.50;3.58;;;20.50;73.90;;;;;;5095712;28;20534;-82
2021/06/01 12:12:08;;;;;;;5.20;3.10;;;21.00;75.30;;;;;;5098240;28;20035;-80
2021/06/01 12:19:40;;;;;;;5.50;2.63;;;23.30;72.70;;;;;;5101438;28;19904;-79
2021/06/01 12:22:05;;;;;;;5.47;2.90;;;22.70;69.10;;;;;;5101176;28;20055;-82
2021/06/01 12:24:31;;;;;;;5.60;2.97;;;22.50;71.60;;;;;;5096507;28;20107;-80
2021/06/01 12:27:41;;;;;;;7.47;3.22;;;22.80;69.60;;;;;;5095373;28;20035;-81
2021/06/01 12:32:32;;;;;;;5.75;3.45;;;22.60;71.10;;;;;;5098193;28;20038;-85
2021/06/01 12:47:39;;;;;;;4.75;2.55;;;22.50;71.00;;;;;;5099308;28;20065;-79
2021/06/01 13:21:15;;;;;;;5.43;2.50;;;22.20;66.80;;;;;;5097206;28;20043;-83
2021/06/01 13:23:39;;;;;;;7.53;3.05;;;21.90;68.60;;;;;;5096262;28;20031;-82
2021/06/01 13:46:31;;;;;;;6.82;2.60;;;22.00;67.50;;;;;;5096527;28;20389;-82
2021/06/01 13:49:35;;;;;;;5.60;2.83;;;21.70;69.50;;;;;;5097052;28;20035;-82
2021/06/01 13:52:19;;;;;;;4.95;3.25;;;21.70;69.30;;;;;;5097169;28;20426;-82
2021/06/01 13:55:09;;;;;;;5.32;2.72;;;21.90;70.50;;;;;;5095984;28;20064;-82
2021/06/01 14:30:27;;;;;;;5.15;2.55;;;22.80;64.40;;;;;;5097281;28;20042;-82
2021/06/01 14:38:55;;;;;;;7.20;2.90;;;23.10;67.00;;;;;;5094862;28;20047;-82
2021/06/01 15:09:05;;;;;;;4.38;2.70;;;22.50;64.10;;;;;;5096736;28;20110;-80
2021/06/01 15:49:52;;;;;;;;;;;21.40;62.30;;;;;;5094914;28;20385;-79
2021/06/01 16:30:23;;;;;;;5.55;2.42;;;20.80;66.30;;;;;;5115752;28;20035;-79
2021/06/01 17:06:26;;;;;;;3.88;1.90;;;20.80;65.40;;;;;;5113676;28;19926;-81
2021/06/01 17:10:57;;;;;;;4.97;1.95;;;20.70;65.10;;;;;;5096991;28;20059;-79
2021/06/01 17:11:49;;;;;;;5.03;2.20;;;20.70;65.10;;;;;;5107437;28;20067;-80
2021/06/01 17:14:16;;;;;;;4.72;2.22;;;20.70;64.90;;;;;;5103128;28;20071;-81
2021/06/01 17:30:46;;;;;;;4.78;1.90;;;20.40;62.50;;;;;;5073516;28;20047;-77
2021/06/01 17:36:04;;;;;;;6.38;2.00;;;20.40;64.30;;;;;;5072765;28;20516;-77
2021/06/01 17:38:30;;;;;;;5.53;1.90;;;20.20;64.60;;;;;;5070669;28;20477;-77
2021/06/01 17:41:00;;;;;;;7.15;2.50;;;20.10;64.30;;;;;;5077017;28;20107;-78
2021/06/01 17:43:35;;;;;;;4.65;2.58;;;20.10;65.40;;;;;;5076578;28;20032;-77
2021/06/01 17:46:06;;;;;;;6.80;3.35;;;20.10;66.00;;;;;;5078651;28;20023;-76
2021/06/01 17:50:59;;;;;;;5.38;3.33;;;20.00;66.30;;;;;;5073783;28;20028;-76
2021/06/01 17:53:25;;;;;;;5.97;3.00;;;19.90;66.90;;;;;;5075000;28;20028;-76
2021/06/01 17:55:53;;;;;;;5.60;2.85;;;19.80;66.40;;;;;;5081073;28;20028;-80
2021/06/01 17:58:24;;;;;;;5.03;3.08;;;19.70;67.90;;;;;;5097153;28;20085;-81
2021/06/01 18:00:51;;;;;;;9.68;3.58;;;19.60;67.50;;;;;;5098811;28;20050;-84
2021/06/01 18:03:23;;;;;;;9.05;3.88;;;19.60;68.40;;;;;;5097685;28;20055;-84
2021/06/01 18:05:52;;;;;;;7.82;3.67;;;19.60;68.60;;;;;;5100533;28;20027;-79
2021/06/01 19:00:22;;;;;;;;;;;18.20;75.70;;;;;;5101235;28;20119;-80
2021/06/01 19:51:53;;;;;;;26.88;13.05;;;17.40;79.40;;;;;;5094034;28;20019;-83
2021/06/01 19:54:22;;;;;;;18.25;8.63;;;17.30;80.60;;;;;;5098109;28;20020;-78
2021/06/01 19:56:49;;;;;;;12.35;6.50;;;17.30;81.10;;;;;;5094742;28;20425;-82
2021/06/01 19:59:16;;;;;;;13.57;7.20;;;17.30;80.50;;;;;;5094982;28;20046;-78
2021/06/01 20:01:43;;;;;;;12.27;6.50;;;17.10;81.00;;;;;;5096935;28;20101;-80
2021/06/01 20:04:10;;;;;;;9.77;5.72;;;16.90;80.60;;;;;;5096631;28;20077;-78
2021/06/01 20:06:40;;;;;;;10.38;5.35;;;16.80;80.90;;;;;;5098414;28;20021;-83
2021/06/01 20:09:07;;;;;;;10.50;5.30;;;16.90;83.20;;;;;;5096937;28;20032;-85
2021/06/01 20:11:36;;;;;;;10.07;5.07;;;16.80;82.10;;;;;;5096563;28;20060;-77
2021/06/01 20:14:03;;;;;;;8.77;5.35;;;16.90;82.30;;;;;;5097870;28;20036;-83
2021/06/01 20:16:34;;;;;;;10.60;6.28;;;16.80;84.10;;;;;;5097564;28;20035;-81